createdAt,value
2017-12-21T00:00:36.160Z,11.02
2017-12-21T00:03:04.467Z,11.95
2017-12-21T00:05:32.607Z,12.00
2017-12-21T00:08:00.739Z,12.50
2017-12-21T00:10:28.924Z,11.63
2017-12-21T00:12:57.076Z,10.57
2017-12-21T00:15:25.241Z,11.15
2017-12-21T00:17:53.376Z,11.07
2017-12-21T00:20:21.653Z,11.68
2017-12-21T00:22:49.792Z,10.85
2017-12-21T00:25:18.739Z,11.10
2017-12-21T00:27:46.873Z,10.45
2017-12-21T00:30:15.009Z,9.82
2017-12-21T00:32:43.177Z,9.80
2017-12-21T00:35:11.316Z,9.80
2017-12-21T00:37:39.593Z,10.07
2017-12-21T00:40:07.764Z,10.45
2017-12-21T00:42:35.912Z,11.02
2017-12-21T00:45:04.857Z,10.43
2017-12-21T00:47:33.000Z,11.00
2017-12-21T00:50:01.141Z,10.50
2017-12-21T00:52:29.316Z,11.70
2017-12-21T00:54:58.223Z,10.85
2017-12-21T00:57:26.498Z,11.43
2017-12-21T00:59:54.631Z,12.13
2017-12-21T01:02:22.788Z,11.18
2017-12-21T01:04:50.917Z,12.70
2017-12-21T01:07:19.060Z,12.10
2017-12-21T01:09:47.331Z,12.98
2017-12-21T01:12:15.473Z,13.43
2017-12-21T01:14:43.669Z,14.48
2017-12-21T01:17:11.801Z,14.98
2017-12-21T01:19:39.964Z,14.63
2017-12-21T01:22:08.120Z,14.00
2017-12-21T01:24:37.064Z,14.50
2017-12-21T01:27:05.195Z,15.48
2017-12-21T01:29:33.488Z,15.95
2017-12-21T01:32:01.648Z,16.55
2017-12-21T01:34:29.787Z,16.75
2017-12-21T01:36:57.954Z,16.98
2017-12-21T01:39:26.142Z,17.27
2017-12-21T01:41:54.373Z,16.37
2017-12-21T01:44:22.492Z,17.80
2017-12-21T01:46:51.457Z,17.50
2017-12-21T01:49:20.537Z,18.10
2017-12-21T01:51:48.694Z,19.27
2017-12-21T01:54:16.840Z,17.65
2017-12-21T01:56:45.133Z,18.40
2017-12-21T01:59:13.267Z,18.65
2017-12-21T02:01:41.408Z,20.35
2017-12-21T02:04:09.697Z,20.67
2017-12-21T02:06:37.836Z,19.60
2017-12-21T02:09:05.994Z,19.23
2017-12-21T02:11:34.146Z,18.67
2017-12-21T02:14:02.333Z,20.20
2017-12-21T02:16:30.473Z,18.77
2017-12-21T02:18:58.630Z,17.23
2017-12-21T02:21:26.889Z,19.00
2017-12-21T02:23:55.024Z,17.67
2017-12-21T02:26:23.193Z,17.05
2017-12-21T02:28:52.101Z,16.77
2017-12-21T02:31:20.289Z,18.10
2017-12-21T02:33:48.428Z,18.33
2017-12-21T02:36:17.333Z,17.12
2017-12-21T02:38:45.604Z,17.17
2017-12-21T02:41:14.512Z,18.83
2017-12-21T02:43:42.684Z,18.10
2017-12-21T02:46:10.848Z,19.30
2017-12-21T02:48:39.014Z,18.85
2017-12-21T02:51:07.912Z,18.95
2017-12-21T02:53:36.091Z,18.90
2017-12-21T02:56:04.367Z,19.15
2017-12-21T02:58:32.506Z,20.25
2017-12-21T03:01:00.673Z,18.60
2017-12-21T03:03:28.820Z,19.65
2017-12-21T03:05:56.984Z,19.20
2017-12-21T03:08:25.132Z,19.05
2017-12-21T03:10:53.408Z,20.25
2017-12-21T03:13:21.572Z,19.08
2017-12-21T03:15:50.490Z,19.62
2017-12-21T03:18:18.664Z,21.33
2017-12-21T03:20:46.810Z,20.73
2017-12-21T03:23:14.964Z,21.20
2017-12-21T03:25:43.127Z,20.08
2017-12-21T03:28:11.265Z,22.05
2017-12-21T03:30:39.541Z,18.25
2017-12-21T03:33:07.684Z,22.13
2017-12-21T03:35:35.860Z,21.52
2017-12-21T03:38:04.010Z,20.85
2017-12-21T03:40:32.144Z,18.80
2017-12-21T03:43:00.309Z,19.62
2017-12-21T03:45:28.444Z,17.33
2017-12-21T03:47:57.513Z,17.85
2017-12-21T03:50:25.644Z,17.75
2017-12-21T03:52:53.797Z,17.77
2017-12-21T03:55:21.989Z,18.05
2017-12-21T03:57:50.129Z,17.73
2017-12-21T04:00:19.039Z,17.15
2017-12-21T04:02:47.208Z,17.05
2017-12-21T04:05:15.344Z,14.77
2017-12-21T04:07:43.636Z,14.63
2017-12-21T04:10:11.793Z,16.65
2017-12-21T04:12:39.968Z,16.70
2017-12-21T04:15:08.127Z,19.87
2017-12-21T04:17:36.273Z,21.33
2017-12-21T04:20:04.559Z,22.35
2017-12-21T04:22:32.700Z,20.60
2017-12-21T04:25:00.849Z,16.77
2017-12-21T04:27:29.034Z,16.98
2017-12-21T04:29:57.174Z,15.07
2017-12-21T04:32:25.348Z,14.87
2017-12-21T04:34:53.493Z,15.90
2017-12-21T04:37:21.633Z,15.50
2017-12-21T04:39:49.942Z,15.68
2017-12-21T04:42:18.067Z,15.90
2017-12-21T04:44:47.004Z,15.00
2017-12-21T04:47:15.168Z,16.33
2017-12-21T04:49:43.318Z,15.70
2017-12-21T04:52:12.248Z,14.73
2017-12-21T04:54:40.386Z,15.95
2017-12-21T04:57:08.663Z,15.90
2017-12-21T04:59:36.799Z,15.60
2017-12-21T05:02:04.976Z,16.48
2017-12-21T05:04:33.124Z,15.63
2017-12-21T05:07:01.289Z,16.80
2017-12-21T05:09:29.420Z,14.10
2017-12-21T05:11:58.472Z,14.85
2017-12-21T05:14:26.645Z,16.02
2017-12-21T05:16:54.792Z,15.95
2017-12-21T05:19:22.941Z,16.85
2017-12-21T05:21:51.105Z,16.65
2017-12-21T05:24:20.014Z,14.50
2017-12-21T05:26:48.191Z,17.15
2017-12-21T05:29:16.332Z,15.68
2017-12-21T05:31:45.255Z,16.23
2017-12-21T05:34:13.520Z,17.45
2017-12-21T05:36:41.667Z,16.42
2017-12-21T05:39:09.828Z,17.35
2017-12-21T05:41:37.975Z,15.75
2017-12-21T05:44:06.126Z,15.65
2017-12-21T05:46:34.279Z,14.75
2017-12-21T05:49:02.435Z,15.68
2017-12-21T05:51:30.724Z,18.25
2017-12-21T05:53:59.628Z,15.32
2017-12-21T05:56:27.811Z,17.83
2017-12-21T05:58:55.945Z,15.13
2017-12-21T06:01:24.141Z,16.05
2017-12-21T06:03:52.276Z,14.90
2017-12-21T06:06:20.412Z,14.95
2017-12-21T06:08:48.689Z,17.12
2017-12-21T06:11:16.834Z,16.23
2017-12-21T06:13:45.762Z,15.13
2017-12-21T06:16:14.668Z,15.98
2017-12-21T06:18:42.953Z,16.80
2017-12-21T06:21:11.104Z,15.88
2017-12-21T06:23:39.340Z,17.15
2017-12-21T06:26:08.240Z,16.02
2017-12-21T06:28:36.391Z,16.37
2017-12-21T06:31:04.591Z,17.23
2017-12-21T06:33:33.490Z,16.67
2017-12-21T06:36:01.782Z,17.70
2017-12-21T06:38:29.920Z,17.35
2017-12-21T06:40:58.876Z,16.62
2017-12-21T06:43:27.009Z,17.15
2017-12-21T06:45:55.184Z,15.50
2017-12-21T06:48:23.346Z,17.12
2017-12-21T06:50:51.483Z,16.52
2017-12-21T06:53:19.647Z,17.27
2017-12-21T06:55:47.788Z,18.12
2017-12-21T06:58:16.069Z,17.08
2017-12-21T07:00:44.200Z,16.08
2017-12-21T07:03:13.152Z,16.80
2017-12-21T07:05:41.316Z,17.35
2017-12-21T07:08:09.476Z,17.17
2017-12-21T07:10:37.645Z,16.35
2017-12-21T07:13:05.804Z,15.88
2017-12-21T07:15:34.084Z,14.90
2017-12-21T07:18:02.244Z,16.40
2017-12-21T07:20:30.415Z,18.12
2017-12-21T07:22:58.580Z,18.48
2017-12-21T07:25:27.505Z,16.23
2017-12-21T07:27:55.652Z,17.08
2017-12-21T07:30:23.804Z,15.48
2017-12-21T07:32:51.949Z,16.65
2017-12-21T07:35:20.248Z,18.08
2017-12-21T07:37:48.399Z,16.77
2017-12-21T07:40:16.549Z,16.05
2017-12-21T07:42:44.710Z,14.35
2017-12-21T07:45:12.844Z,15.40
2017-12-21T07:47:41.012Z,15.10
2017-12-21T07:50:09.149Z,14.60
2017-12-21T07:52:37.430Z,15.82
2017-12-21T07:55:05.573Z,14.48
2017-12-21T07:57:33.752Z,15.20
2017-12-21T08:00:01.894Z,15.52
2017-12-21T08:02:30.806Z,14.50
2017-12-21T08:04:59.100Z,17.85
2017-12-21T08:07:27.252Z,15.60
2017-12-21T08:09:56.168Z,15.10
2017-12-21T08:12:24.331Z,14.35
2017-12-21T08:14:52.507Z,13.85
2017-12-21T08:17:20.653Z,15.93
2017-12-21T08:19:49.571Z,14.60
2017-12-21T08:22:17.884Z,15.02
2017-12-21T08:24:46.095Z,14.57
2017-12-21T08:27:15.021Z,17.02
2017-12-21T08:29:43.152Z,14.30
2017-12-21T08:32:12.109Z,12.63
2017-12-21T08:34:40.257Z,14.18
2017-12-21T08:37:08.553Z,13.75
2017-12-21T08:39:36.722Z,13.80
2017-12-21T08:42:04.852Z,13.77
2017-12-21T08:44:33.782Z,13.00
2017-12-21T08:47:01.929Z,15.45
2017-12-21T08:49:30.216Z,15.30
2017-12-21T08:51:58.392Z,14.48
2017-12-21T08:54:26.560Z,13.23
2017-12-21T08:56:54.704Z,14.05
2017-12-21T08:59:23.641Z,14.57
2017-12-21T09:01:51.782Z,13.20
2017-12-21T09:04:20.704Z,13.02
2017-12-21T09:06:48.981Z,12.57
2017-12-21T09:09:17.149Z,13.55
2017-12-21T09:11:45.321Z,13.40
2017-12-21T09:14:13.444Z,12.60
2017-12-21T09:16:41.606Z,12.30
2017-12-21T09:19:09.740Z,11.10
2017-12-21T09:21:37.918Z,12.30
2017-12-21T09:24:06.080Z,12.63
2017-12-21T09:26:34.227Z,11.63
2017-12-21T09:29:03.283Z,12.45
2017-12-21T09:31:31.427Z,13.23
2017-12-21T09:33:59.609Z,12.80
2017-12-21T09:36:27.744Z,13.32
2017-12-21T09:38:55.934Z,13.20
2017-12-21T09:41:24.825Z,14.07
2017-12-21T09:43:52.963Z,14.27
2017-12-21T09:46:21.244Z,11.73
2017-12-21T09:48:49.384Z,13.65
2017-12-21T09:51:17.546Z,12.95
2017-12-21T09:53:45.738Z,14.32
2017-12-21T09:56:13.905Z,13.23
2017-12-21T09:58:42.037Z,13.40
2017-12-21T10:01:10.185Z,13.55
2017-12-21T10:03:38.474Z,13.90
2017-12-21T10:06:07.373Z,14.60
2017-12-21T10:08:35.514Z,13.00
2017-12-21T10:11:03.685Z,13.13
2017-12-21T10:13:31.885Z,12.32
2017-12-21T10:16:00.825Z,12.20
2017-12-21T10:18:28.982Z,11.15
2017-12-21T10:20:57.125Z,10.20
2017-12-21T10:23:26.053Z,8.25
2017-12-21T10:25:54.196Z,9.07
2017-12-21T10:28:23.112Z,8.95
2017-12-21T10:30:51.392Z,8.25
2017-12-21T10:33:19.534Z,9.40
2017-12-21T10:35:48.432Z,8.15
2017-12-21T10:38:16.712Z,9.05
2017-12-21T10:40:44.853Z,8.18
2017-12-21T10:43:13.024Z,8.57
2017-12-21T10:45:41.156Z,9.10
2017-12-21T10:48:09.293Z,8.35
2017-12-21T10:50:38.340Z,8.07
2017-12-21T10:53:06.527Z,8.40
2017-12-21T10:55:34.666Z,8.25
2017-12-21T10:58:02.796Z,9.05
2017-12-21T11:00:31.756Z,8.75
2017-12-21T11:02:59.897Z,8.93
2017-12-21T11:05:28.029Z,7.50
2017-12-21T11:07:56.281Z,8.27
2017-12-21T11:10:24.426Z,8.05
2017-12-21T11:12:52.678Z,7.37
2017-12-21T11:15:20.793Z,8.57
2017-12-21T11:17:48.916Z,8.50
2017-12-21T11:20:17.072Z,7.65
2017-12-21T11:22:45.229Z,7.65
2017-12-21T11:25:13.413Z,9.40
2017-12-21T11:27:41.569Z,7.68
2017-12-21T11:30:09.717Z,8.25
2017-12-21T11:32:37.994Z,7.43
2017-12-21T11:35:06.122Z,8.93
2017-12-21T11:37:34.286Z,7.70
2017-12-21T11:40:02.458Z,11.68
2017-12-21T11:42:30.596Z,8.90
2017-12-21T11:44:58.757Z,9.20
2017-12-21T11:47:26.898Z,7.80
2017-12-21T11:49:55.945Z,8.82
2017-12-21T11:52:24.103Z,12.73
2017-12-21T11:54:52.271Z,7.80
2017-12-21T11:57:20.397Z,9.60
2017-12-21T11:59:49.336Z,8.93
2017-12-21T12:02:17.498Z,8.80
2017-12-21T12:04:45.626Z,9.32
2017-12-21T12:07:13.905Z,8.10
2017-12-21T12:09:42.040Z,9.85
2017-12-21T12:12:10.225Z,10.20
2017-12-21T12:14:38.389Z,8.75
2017-12-21T12:17:06.529Z,8.30
2017-12-21T12:19:34.664Z,8.45
2017-12-21T12:22:02.962Z,8.80
2017-12-21T12:24:31.094Z,8.43
2017-12-21T12:26:59.259Z,8.02
2017-12-21T12:29:27.398Z,8.43
2017-12-21T12:31:56.324Z,8.70
2017-12-21T12:34:24.481Z,8.13
2017-12-21T12:36:52.681Z,8.82
2017-12-21T12:39:20.872Z,8.85
2017-12-21T12:41:48.993Z,9.15
2017-12-21T12:44:17.273Z,8.50
2017-12-21T12:46:45.408Z,9.10
2017-12-21T12:49:14.336Z,8.45
2017-12-21T12:51:42.469Z,9.57
2017-12-21T12:54:10.749Z,8.95
2017-12-21T12:56:39.690Z,8.68
2017-12-21T12:59:08.600Z,8.15
2017-12-21T13:01:36.760Z,8.25
2017-12-21T13:04:04.881Z,7.85
2017-12-21T13:06:33.928Z,7.50
2017-12-21T13:09:02.078Z,7.47
2017-12-21T13:11:30.268Z,7.03
2017-12-21T13:13:58.461Z,7.85
2017-12-21T13:16:26.686Z,7.70
2017-12-21T13:18:54.791Z,7.90
2017-12-21T13:21:22.969Z,7.20
2017-12-21T13:23:51.087Z,7.65
2017-12-21T13:26:19.984Z,7.10
2017-12-21T13:28:49.054Z,8.40
2017-12-21T13:31:17.188Z,7.10
2017-12-21T13:33:45.388Z,6.95
2017-12-21T13:36:13.506Z,7.07
2017-12-21T13:38:42.454Z,7.22
2017-12-21T13:41:10.597Z,7.45
2017-12-21T13:43:38.720Z,7.00
2017-12-21T13:46:06.994Z,7.70
2017-12-21T13:48:35.112Z,8.00
2017-12-21T13:51:03.314Z,8.15
2017-12-21T13:53:31.489Z,7.60
2017-12-21T13:55:59.633Z,7.95
2017-12-21T13:58:27.797Z,7.62
2017-12-21T14:00:56.137Z,7.43
2017-12-21T14:03:24.228Z,9.05
2017-12-21T14:05:52.403Z,7.75
2017-12-21T14:08:20.552Z,7.03
2017-12-21T14:10:48.679Z,7.90
2017-12-21T14:13:17.624Z,7.25
2017-12-21T14:15:45.748Z,6.80
2017-12-21T14:18:14.024Z,6.50
2017-12-21T14:20:42.169Z,6.40
2017-12-21T14:23:11.145Z,5.90
2017-12-21T14:25:39.296Z,4.90
2017-12-21T14:28:07.440Z,7.00
2017-12-21T14:30:35.634Z,6.05
2017-12-21T14:33:03.800Z,4.03
2017-12-21T14:35:31.976Z,4.30
2017-12-21T14:38:00.251Z,4.07
2017-12-21T14:40:28.419Z,4.37
2017-12-21T14:42:56.593Z,4.32
2017-12-21T14:45:24.752Z,3.42
2017-12-21T14:47:53.024Z,3.85
2017-12-21T14:50:21.153Z,3.78
2017-12-21T14:52:49.511Z,2.55
2017-12-21T14:55:17.658Z,3.17
2017-12-21T14:57:45.813Z,2.90
2017-12-21T15:00:14.762Z,2.80
2017-12-21T15:02:42.950Z,3.03
2017-12-21T15:05:11.854Z,3.15
2017-12-21T15:07:40.762Z,3.10
2017-12-21T15:10:09.021Z,3.12
2017-12-21T15:12:37.923Z,3.83
2017-12-21T15:15:06.085Z,3.08
2017-12-21T15:17:35.013Z,2.53
2017-12-21T15:20:03.158Z,2.95
2017-12-21T15:22:31.356Z,2.75
2017-12-21T15:24:59.523Z,2.40
2017-12-21T15:27:27.824Z,2.87
2017-12-21T15:29:55.976Z,3.03
2017-12-21T15:32:24.136Z,3.30
2017-12-21T15:34:52.276Z,3.10
2017-12-21T15:37:20.430Z,2.58
2017-12-21T15:39:48.585Z,3.55
2017-12-21T15:42:16.739Z,3.28
2017-12-21T15:44:44.944Z,3.30
2017-12-21T15:47:13.069Z,3.37
2017-12-21T15:49:42.008Z,3.08
2017-12-21T15:52:10.145Z,3.00
2017-12-21T15:54:38.322Z,3.67
2017-12-21T15:57:06.464Z,3.22
2017-12-21T15:59:34.602Z,3.30
2017-12-21T16:02:02.919Z,3.30
2017-12-21T16:04:31.046Z,4.30
2017-12-21T16:06:59.201Z,5.15
2017-12-21T16:09:27.472Z,4.80
2017-12-21T16:11:55.617Z,4.72
2017-12-21T16:14:24.529Z,3.80
2017-12-21T16:16:52.672Z,4.30
2017-12-21T16:19:20.948Z,5.97
2017-12-21T16:21:49.887Z,4.05
2017-12-21T16:24:18.053Z,5.05
2017-12-21T16:26:46.245Z,4.80
2017-12-21T16:29:14.382Z,4.03
2017-12-21T16:31:42.557Z,3.58
2017-12-21T16:34:11.465Z,3.22
2017-12-21T16:36:39.746Z,3.53
2017-12-21T16:39:07.896Z,3.12
2017-12-21T16:41:36.047Z,3.20
2017-12-21T16:44:04.962Z,3.05
2017-12-21T16:46:33.153Z,3.95
2017-12-21T16:49:01.308Z,2.90
2017-12-21T16:51:29.576Z,3.30
2017-12-21T16:53:58.465Z,3.08
2017-12-21T16:56:26.632Z,3.20
2017-12-21T16:58:55.561Z,2.87
2017-12-21T17:01:23.705Z,3.20
2017-12-21T17:03:52.646Z,2.83
2017-12-21T17:06:20.798Z,3.70
2017-12-21T17:08:48.941Z,3.90
2017-12-21T17:11:17.903Z,3.30
2017-12-21T17:13:46.044Z,3.65
2017-12-21T17:16:14.217Z,3.80
2017-12-21T17:18:42.360Z,3.87
2017-12-21T17:21:10.635Z,3.62
2017-12-21T17:23:39.570Z,4.10
2017-12-21T17:26:07.702Z,3.40
2017-12-21T17:28:35.899Z,4.43
2017-12-21T17:31:04.100Z,4.15
2017-12-21T17:33:32.222Z,5.80
2017-12-21T17:36:00.389Z,4.65
2017-12-21T17:38:29.448Z,5.10
2017-12-21T17:40:57.611Z,5.53
2017-12-21T17:43:25.763Z,5.87
2017-12-21T17:45:53.953Z,6.85
2017-12-21T17:48:22.107Z,6.97
2017-12-21T17:50:51.036Z,5.70
2017-12-21T17:53:19.272Z,6.15
2017-12-21T17:55:47.421Z,7.10
2017-12-21T17:58:15.606Z,8.30
2017-12-21T18:00:44.490Z,6.60
2017-12-21T18:03:12.766Z,7.15
2017-12-21T18:05:40.928Z,6.22
2017-12-21T18:08:09.112Z,6.37
2017-12-21T18:10:37.269Z,6.00
2017-12-21T18:13:06.229Z,6.28
2017-12-21T18:15:34.374Z,5.82
2017-12-21T18:18:02.505Z,5.80
2017-12-21T18:20:31.542Z,5.45
2017-12-21T18:22:59.682Z,6.10
2017-12-21T18:25:27.836Z,6.12
2017-12-21T18:27:55.970Z,9.25
2017-12-21T18:30:24.157Z,6.05
2017-12-21T18:32:52.312Z,5.10
2017-12-21T18:35:20.483Z,5.72
2017-12-21T18:37:48.776Z,5.40
2017-12-21T18:40:16.942Z,4.43
2017-12-21T18:42:45.122Z,3.83
2017-12-21T18:45:13.872Z,6.87
2017-12-21T18:47:42.029Z,5.82
2017-12-21T18:50:10.958Z,5.47
2017-12-21T18:52:39.085Z,3.83
2017-12-21T18:55:07.360Z,4.20
2017-12-21T18:57:35.525Z,4.32
2017-12-21T19:00:03.667Z,4.60
2017-12-21T19:02:31.830Z,4.12
2017-12-21T19:05:00.744Z,3.90
2017-12-21T19:07:28.935Z,4.50
2017-12-21T19:09:57.081Z,5.62
2017-12-21T19:12:25.369Z,6.32
2017-12-21T19:14:53.501Z,3.30
2017-12-21T19:17:21.672Z,3.25
2017-12-21T19:19:49.834Z,3.55
2017-12-21T19:22:18.737Z,3.50
2017-12-21T19:24:46.921Z,3.35
2017-12-21T19:27:15.077Z,3.65
2017-12-21T19:29:43.353Z,4.00
2017-12-21T19:32:11.516Z,3.67
2017-12-21T19:34:39.704Z,3.90
2017-12-21T19:37:07.841Z,3.25
2017-12-21T19:39:35.979Z,3.80
2017-12-21T19:42:04.169Z,3.83
2017-12-21T19:44:32.324Z,3.80
2017-12-21T19:47:00.615Z,3.80
2017-12-21T19:49:28.762Z,3.78
2017-12-21T19:51:56.970Z,4.20
2017-12-21T19:54:25.142Z,4.07
2017-12-21T19:56:53.296Z,4.57
2017-12-21T19:59:21.470Z,3.85
2017-12-21T20:01:49.626Z,4.32
2017-12-21T20:04:17.777Z,3.70
2017-12-21T20:06:46.063Z,3.80
2017-12-21T20:09:14.214Z,4.18
2017-12-21T20:11:43.165Z,4.03
2017-12-21T20:14:11.318Z,4.50
2017-12-21T20:16:39.534Z,4.22
2017-12-21T20:19:07.680Z,4.35
2017-12-21T20:21:35.843Z,4.57
2017-12-21T20:24:04.169Z,4.85
2017-12-21T20:26:32.314Z,4.93
2017-12-21T20:29:00.483Z,4.45
2017-12-21T20:31:28.617Z,5.25
2017-12-21T20:33:56.809Z,5.30
2017-12-21T20:36:24.982Z,5.40
2017-12-21T20:38:53.161Z,5.95
2017-12-21T20:41:21.484Z,6.00
2017-12-21T20:43:49.638Z,5.37
2017-12-21T20:46:17.788Z,5.70
2017-12-21T20:48:45.968Z,5.55
2017-12-21T20:51:14.117Z,5.18
2017-12-21T20:53:42.330Z,5.12
2017-12-21T20:56:10.493Z,5.50
2017-12-21T20:58:39.530Z,5.32
2017-12-21T21:01:07.675Z,5.55
2017-12-21T21:03:35.849Z,5.25
2017-12-21T21:06:03.994Z,5.32
2017-12-21T21:08:32.177Z,4.82
2017-12-21T21:11:00.336Z,5.50
2017-12-21T21:13:28.655Z,5.00
2017-12-21T21:15:56.814Z,5.40
2017-12-21T21:18:24.961Z,5.10
2017-12-21T21:20:53.892Z,5.85
2017-12-21T21:23:22.117Z,5.75
2017-12-21T21:25:50.277Z,5.35
2017-12-21T21:28:18.450Z,5.68
2017-12-21T21:30:47.501Z,6.18
2017-12-21T21:33:15.672Z,5.75
2017-12-21T21:35:43.811Z,5.32
2017-12-21T21:38:11.969Z,6.80
2017-12-21T21:40:40.166Z,5.70
2017-12-21T21:43:08.285Z,6.70
2017-12-21T21:45:36.481Z,6.60
2017-12-21T21:48:05.524Z,6.70
2017-12-21T21:50:33.654Z,7.43
2017-12-21T21:53:01.818Z,6.37
2017-12-21T21:55:30.729Z,6.43
2017-12-21T21:57:58.908Z,7.40
2017-12-21T22:00:27.070Z,7.35
2017-12-21T22:02:55.361Z,8.02
2017-12-21T22:05:23.537Z,7.53
2017-12-21T22:07:51.669Z,8.00
2017-12-21T22:10:20.622Z,7.95
2017-12-21T22:12:48.771Z,7.75
2017-12-21T22:15:16.918Z,7.53
2017-12-21T22:17:45.851Z,8.30
2017-12-21T22:20:14.000Z,8.27
2017-12-21T22:22:42.316Z,7.62
2017-12-21T22:25:10.444Z,7.43
2017-12-21T22:27:38.584Z,7.43
2017-12-21T22:30:06.769Z,8.35
2017-12-21T22:32:34.907Z,8.05
2017-12-21T22:35:03.083Z,8.02
2017-12-21T22:37:31.274Z,9.55
2017-12-21T22:39:59.556Z,9.13
2017-12-21T22:42:27.696Z,9.02
2017-12-21T22:44:55.846Z,9.25
2017-12-21T22:47:24.008Z,9.20
2017-12-21T22:49:52.179Z,9.55
2017-12-21T22:52:21.130Z,9.18
2017-12-21T22:54:49.286Z,9.95
2017-12-21T22:57:17.576Z,8.50
2017-12-21T22:59:45.722Z,8.90
2017-12-21T23:02:13.885Z,8.50
2017-12-21T23:04:42.021Z,8.20
2017-12-21T23:07:10.165Z,8.43
2017-12-21T23:09:38.350Z,8.50
2017-12-21T23:12:06.469Z,9.63
2017-12-21T23:14:34.762Z,8.57
2017-12-21T23:17:02.893Z,8.55
2017-12-21T23:19:31.826Z,9.05
2017-12-21T23:21:59.993Z,8.18
2017-12-21T23:24:28.144Z,9.20
2017-12-21T23:26:56.337Z,8.43
2017-12-21T23:29:24.520Z,7.60
2017-12-21T23:31:52.641Z,7.53
2017-12-21T23:34:20.943Z,9.15
2017-12-21T23:36:49.135Z,8.32
2017-12-21T23:39:17.281Z,8.18
2017-12-21T23:41:46.166Z,8.07
2017-12-21T23:44:14.355Z,8.30
2017-12-21T23:46:43.260Z,8.40
2017-12-21T23:49:11.530Z,8.32
2017-12-21T23:51:39.661Z,7.45
2017-12-21T23:54:07.861Z,8.25
2017-12-21T23:56:36.004Z,8.10
2017-12-21T23:59:04.172Z,8.30
